createdAt,value
2017-12-16T00:00:21.007Z,97.07
2017-12-16T00:01:20.983Z,97.12
2017-12-16T00:02:20.976Z,97.5
2017-12-16T00:03:20.957Z,97.5
2017-12-16T00:04:20.968Z,97.16
2017-12-16T00:05:20.672Z,97.59
2017-12-16T00:06:20.664Z,97.31
2017-12-16T00:07:20.917Z,97.4
2017-12-16T00:08:20.912Z,96.73
2017-12-16T00:09:20.893Z,96.83
2017-12-16T00:10:20.870Z,96.83
2017-12-16T00:11:20.854Z,96.92
2017-12-16T00:12:20.837Z,97.07
2017-12-16T00:13:20.822Z,96.92
2017-12-16T00:14:20.817Z,96.88
2017-12-16T00:15:20.807Z,96.88
2017-12-16T00:16:20.788Z,96.69
2017-12-16T00:17:20.770Z,96.59
2017-12-16T00:18:20.765Z,96.78
2017-12-16T00:19:20.753Z,96.78
2017-12-16T00:20:20.740Z,96.78
2017-12-16T00:21:20.462Z,96.88
2017-12-16T00:22:20.727Z,97.26
2017-12-16T00:23:20.701Z,97.31
2017-12-16T00:24:20.684Z,97.26
2017-12-16T00:25:20.674Z,97.26
2017-12-16T00:26:20.399Z,97.45
2017-12-16T00:27:20.638Z,97.02
2017-12-16T00:28:20.631Z,97.45
2017-12-16T00:29:20.626Z,97.02
2017-12-16T00:30:20.595Z,97.4
2017-12-16T00:31:20.581Z,97.07
2017-12-16T00:32:20.574Z,97.26
2017-12-16T00:33:20.557Z,97.5
2017-12-16T00:34:20.553Z,97.21
2017-12-16T00:35:20.527Z,97.78
2017-12-16T00:36:20.529Z,97.59
2017-12-16T00:37:20.522Z,97.21
2017-12-16T00:38:20.499Z,96.92
2017-12-16T00:39:20.476Z,96.83
2017-12-16T00:40:20.464Z,96.92
2017-12-16T00:41:20.448Z,97.02
2017-12-16T00:42:20.442Z,96.83
2017-12-16T00:43:20.425Z,96.73
2017-12-16T00:44:20.415Z,96.83
2017-12-16T00:45:20.400Z,96.73
2017-12-16T00:46:20.397Z,97.02
2017-12-16T00:47:20.109Z,96.73
2017-12-16T00:48:20.101Z,97.12
2017-12-16T00:49:20.350Z,97.12
2017-12-16T00:50:20.340Z,96.83
2017-12-16T00:51:20.316Z,96.92
2017-12-16T00:52:20.310Z,97.21
2017-12-16T00:53:20.299Z,97.21
2017-12-16T00:54:20.276Z,97.02
2017-12-16T00:55:20.009Z,96.73
2017-12-16T00:56:20.254Z,96.83
2017-12-16T00:57:20.243Z,97.21
2017-12-16T00:58:20.227Z,97.12
2017-12-16T00:59:20.212Z,96.83
2017-12-16T01:00:20.201Z,96.92
2017-12-16T01:01:20.210Z,97.02
2017-12-16T01:02:20.176Z,96.83
2017-12-16T01:03:20.153Z,97.02
2017-12-16T01:04:19.883Z,97.02
2017-12-16T01:05:20.188Z,97.02
2017-12-16T01:06:20.119Z,97.02
2017-12-16T01:07:20.105Z,96.73
2017-12-16T01:08:20.090Z,96.83
2017-12-16T01:09:20.082Z,96.92
2017-12-16T01:10:19.806Z,96.73
2017-12-16T01:11:20.046Z,97.02
2017-12-16T01:12:20.039Z,97.12
2017-12-16T01:13:20.021Z,97.31
2017-12-16T01:14:20.020Z,97.31
2017-12-16T01:15:20.005Z,97.31
2017-12-16T01:16:19.989Z,97.31
2017-12-16T01:17:19.968Z,97.31
2017-12-16T01:18:19.963Z,97.02
2017-12-16T01:19:19.943Z,97.02
2017-12-16T01:20:19.927Z,97.31
2017-12-16T01:21:19.925Z,97.12
2017-12-16T01:22:19.902Z,97.12
2017-12-16T01:23:19.895Z,97.12
2017-12-16T01:24:19.884Z,97.31
2017-12-16T01:25:19.877Z,97.12
2017-12-16T01:26:19.857Z,97.31
2017-12-16T01:27:19.847Z,97.4
2017-12-16T01:28:19.833Z,97.5
2017-12-16T01:29:19.602Z,97.5
2017-12-16T01:30:19.801Z,97.31
2017-12-16T01:31:19.783Z,97.5
2017-12-16T01:32:19.776Z,97.21
2017-12-16T01:33:19.763Z,97.12
2017-12-16T01:34:19.746Z,96.83
2017-12-16T01:35:19.738Z,96.83
2017-12-16T01:36:19.716Z,96.83
2017-12-16T01:37:19.703Z,96.83
2017-12-16T01:38:19.689Z,96.92
2017-12-16T01:39:19.693Z,97.12
2017-12-16T01:40:19.672Z,97.12
2017-12-16T01:41:19.662Z,97.02
2017-12-16T01:42:19.705Z,96.92
2017-12-16T01:43:19.631Z,97.12
2017-12-16T01:44:19.615Z,96.92
2017-12-16T01:45:19.607Z,96.92
2017-12-16T01:46:19.594Z,96.83
2017-12-16T01:47:19.582Z,97.21
2017-12-16T01:48:19.555Z,96.92
2017-12-16T01:49:19.544Z,96.92
2017-12-16T01:50:19.532Z,96.92
2017-12-16T01:51:19.531Z,97.12
2017-12-16T01:52:19.515Z,97.12
2017-12-16T01:53:19.500Z,97.21
2017-12-16T01:54:19.479Z,96.92
2017-12-16T01:55:19.475Z,96.83
2017-12-16T01:56:19.486Z,97.12
2017-12-16T01:57:19.445Z,97.21
2017-12-16T01:58:19.166Z,97.12
2017-12-16T01:59:19.418Z,97.21
2017-12-16T02:00:19.144Z,96.83
2017-12-16T02:01:19.385Z,96.83
2017-12-16T02:02:19.370Z,96.92
2017-12-16T02:03:19.362Z,96.92
2017-12-16T02:04:19.354Z,96.83
2017-12-16T02:05:19.335Z,96.83
2017-12-16T02:06:19.319Z,97.12
2017-12-16T02:07:19.309Z,97.12
2017-12-16T02:08:19.297Z,96.83
2017-12-16T02:09:19.291Z,96.73
2017-12-16T02:10:19.269Z,96.83
2017-12-16T02:11:19.265Z,97.12
2017-12-16T02:12:19.247Z,96.83
2017-12-16T02:13:19.235Z,97.02
2017-12-16T02:14:19.213Z,96.92
2017-12-16T02:15:19.208Z,97.21
2017-12-16T02:16:19.196Z,97.12
2017-12-16T02:17:19.174Z,97.02
2017-12-16T02:18:19.172Z,96.92
2017-12-16T02:19:19.163Z,97.02
2017-12-16T02:20:19.135Z,97.31
2017-12-16T02:21:19.121Z,96.92
2017-12-16T02:22:19.120Z,96.83
2017-12-16T02:23:19.094Z,96.92
2017-12-16T02:24:19.089Z,96.73
2017-12-16T02:25:19.080Z,97.02
2017-12-16T02:26:19.062Z,96.92
2017-12-16T02:27:19.046Z,96.83
2017-12-16T02:28:19.040Z,97.12
2017-12-16T02:29:19.014Z,96.83
2017-12-16T02:30:19.023Z,97.02
2017-12-16T02:31:18.998Z,96.92
2017-12-16T02:32:18.992Z,96.83
2017-12-16T02:33:18.965Z,97.21
2017-12-16T02:34:18.955Z,97.12
2017-12-16T02:35:18.945Z,96.92
2017-12-16T02:36:18.930Z,97.12
2017-12-16T02:37:19.338Z,97.31
2017-12-16T02:38:18.894Z,97.31
2017-12-16T02:39:18.894Z,97.31
2017-12-16T02:40:18.882Z,97.21
2017-12-16T02:41:18.866Z,96.73
2017-12-16T02:42:18.844Z,96.73
2017-12-16T02:43:18.847Z,96.83
2017-12-16T02:44:18.817Z,96.83
2017-12-16T02:45:18.813Z,96.83
2017-12-16T02:46:18.797Z,97.02
2017-12-16T02:47:18.791Z,97.12
2017-12-16T02:48:18.828Z,97.02
2017-12-16T02:49:18.761Z,96.92
2017-12-16T02:50:18.737Z,97.12
2017-12-16T02:51:18.731Z,97.31
2017-12-16T02:52:18.457Z,97.02
2017-12-16T02:53:18.717Z,97.31
2017-12-16T02:54:18.692Z,97.21
2017-12-16T02:55:18.670Z,97.21
2017-12-16T02:56:18.979Z,97.31
2017-12-16T02:57:18.395Z,97.02
2017-12-16T02:58:18.631Z,96.83
2017-12-16T02:59:18.625Z,96.83
2017-12-16T03:00:18.602Z,97.02
2017-12-16T03:01:18.604Z,96.92
2017-12-16T03:02:18.585Z,97.59
2017-12-16T03:03:18.565Z,97.5
2017-12-16T03:04:18.558Z,97.21
2017-12-16T03:05:18.535Z,97.5
2017-12-16T03:06:18.525Z,97.31
2017-12-16T03:07:18.518Z,97.31
2017-12-16T03:08:18.495Z,97.12
2017-12-16T03:09:18.489Z,96.83
2017-12-16T03:10:18.478Z,96.88
2017-12-16T03:11:18.468Z,96.88
2017-12-16T03:12:18.454Z,97.07
2017-12-16T03:13:18.433Z,97.35
2017-12-16T03:14:18.426Z,97.16
2017-12-16T03:15:18.411Z,97.26
2017-12-16T03:16:18.398Z,96.97
2017-12-16T03:17:18.423Z,96.88
2017-12-16T03:18:18.363Z,97.26
2017-12-16T03:19:18.362Z,97.26
2017-12-16T03:20:18.340Z,97.07
2017-12-16T03:21:18.323Z,97.54
2017-12-16T03:22:18.311Z,97.26
2017-12-16T03:23:18.304Z,97.45
2017-12-16T03:24:18.287Z,97.64
2017-12-16T03:25:18.273Z,97.54
2017-12-16T03:26:18.255Z,97.64
2017-12-16T03:27:17.986Z,97.35
2017-12-16T03:28:18.236Z,98.11
2017-12-16T03:29:18.217Z,97.54
2017-12-16T03:30:18.219Z,97.45
2017-12-16T03:31:18.191Z,97.54
2017-12-16T03:32:18.174Z,97.73
2017-12-16T03:33:18.170Z,98.02
2017-12-16T03:34:18.158Z,97.83
2017-12-16T03:35:18.141Z,97.83
2017-12-16T03:36:18.127Z,97.83
2017-12-16T03:37:18.114Z,97.73
2017-12-16T03:38:18.108Z,97.54
2017-12-16T03:39:18.079Z,97.73
2017-12-16T03:40:18.066Z,97.45
2017-12-16T03:41:18.059Z,97.54
2017-12-16T03:42:18.036Z,97.83
2017-12-16T03:43:18.032Z,97.92
2017-12-16T03:44:18.017Z,97.73
2017-12-16T03:45:18.005Z,97.83
2017-12-16T03:46:17.983Z,97.54
2017-12-16T03:47:17.977Z,97.83
2017-12-16T03:48:17.957Z,97.83
2017-12-16T03:49:17.947Z,97.54
2017-12-16T03:50:17.935Z,97.45
2017-12-16T03:51:17.924Z,97.68
2017-12-16T03:52:17.900Z,97.73
2017-12-16T03:53:17.885Z,98.06
2017-12-16T03:54:17.873Z,98.25
2017-12-16T03:55:17.861Z,98.25
2017-12-16T03:56:17.586Z,98.25
2017-12-16T03:57:17.830Z,98.16
2017-12-16T03:58:17.827Z,98.06
2017-12-16T03:59:17.804Z,97.97
2017-12-16T04:00:17.799Z,97.87
2017-12-16T04:01:17.774Z,97.87
2017-12-16T04:02:17.762Z,97.87
2017-12-16T04:03:17.755Z,98.25
2017-12-16T04:04:17.737Z,97.87
2017-12-16T04:05:17.731Z,98.25
2017-12-16T04:06:17.710Z,98.06
2017-12-16T04:07:17.693Z,98.06
2017-12-16T04:08:17.678Z,97.87
2017-12-16T04:09:17.662Z,97.92
2017-12-16T04:10:17.649Z,98.21
2017-12-16T04:11:17.644Z,98.16
2017-12-16T04:12:17.620Z,98.16
2017-12-16T04:13:17.611Z,98.35
2017-12-16T04:14:17.601Z,98.11
2017-12-16T04:15:17.587Z,98.25
2017-12-16T04:16:17.569Z,98.06
2017-12-16T04:17:17.552Z,98.16
2017-12-16T04:18:17.537Z,98.25
2017-12-16T04:19:17.535Z,98.16
2017-12-16T04:20:17.510Z,98.25
2017-12-16T04:21:17.501Z,98.16
2017-12-16T04:22:17.490Z,98.06
2017-12-16T04:23:17.476Z,97.97
2017-12-16T04:24:17.206Z,97.78
2017-12-16T04:25:17.450Z,97.87
2017-12-16T04:26:17.436Z,97.92
2017-12-16T04:27:17.423Z,97.97
2017-12-16T04:28:17.399Z,98.06
2017-12-16T04:29:17.131Z,98.16
2017-12-16T04:30:17.379Z,98.35
2017-12-16T04:31:17.359Z,98.3
2017-12-16T04:32:17.343Z,98.3
2017-12-16T04:33:17.340Z,98.21
2017-12-16T04:34:17.326Z,98.11
2017-12-16T04:35:17.313Z,98.3
2017-12-16T04:36:17.296Z,98.21
2017-12-16T04:37:17.289Z,98.3
2017-12-16T04:38:17.257Z,98.3
2017-12-16T04:39:17.254Z,98.02
2017-12-16T04:40:17.242Z,98.39
2017-12-16T04:41:17.235Z,98.3
2017-12-16T04:42:17.203Z,98.39
2017-12-16T04:43:17.188Z,98.11
2017-12-16T04:44:17.199Z,97.64
2017-12-16T04:45:16.903Z,97.83
2017-12-16T04:46:17.157Z,97.73
2017-12-16T04:47:17.143Z,97.54
2017-12-16T04:48:17.119Z,97.45
2017-12-16T04:49:17.107Z,97.54
2017-12-16T04:50:17.115Z,97.45
2017-12-16T04:51:17.087Z,97.73
2017-12-16T04:52:17.079Z,97.83
2017-12-16T04:53:17.051Z,97.73
2017-12-16T04:54:17.036Z,97.83
2017-12-16T04:55:17.028Z,97.83
2017-12-16T04:56:17.011Z,97.83
2017-12-16T04:57:17.007Z,97.83
2017-12-16T04:58:16.732Z,97.64
2017-12-16T04:59:16.975Z,97.83
2017-12-16T05:00:16.963Z,97.54
2017-12-16T05:01:16.947Z,97.54
2017-12-16T05:02:16.931Z,97.78
2017-12-16T05:03:16.658Z,97.49
2017-12-16T05:04:16.894Z,97.49
2017-12-16T05:05:16.885Z,97.59
2017-12-16T05:06:16.869Z,97.59
2017-12-16T05:07:16.856Z,97.97
2017-12-16T05:08:16.852Z,97.97
2017-12-16T05:09:16.836Z,97.78
2017-12-16T05:10:16.815Z,97.59
2017-12-16T05:11:16.808Z,97.78
2017-12-16T05:12:16.798Z,97.68
2017-12-16T05:13:16.783Z,97.97
2017-12-16T05:14:16.761Z,98.35
2017-12-16T05:15:16.751Z,97.97
2017-12-16T05:16:16.731Z,98.35
2017-12-16T05:17:16.731Z,98.06
2017-12-16T05:18:16.712Z,97.87
2017-12-16T05:19:16.686Z,97.97
2017-12-16T05:20:16.674Z,98.25
2017-12-16T05:21:16.661Z,98.06
2017-12-16T05:22:16.653Z,98.35
2017-12-16T05:23:16.629Z,98.25
2017-12-16T05:24:16.626Z,98.35
2017-12-16T05:25:16.617Z,98.35
2017-12-16T05:26:16.596Z,97.97
2017-12-16T05:27:16.577Z,97.97
2017-12-16T05:28:16.562Z,97.87
2017-12-16T05:29:16.297Z,98.06
2017-12-16T05:30:16.534Z,98.16
2017-12-16T05:31:16.521Z,98.06
2017-12-16T05:32:16.512Z,98.16
2017-12-16T05:33:16.497Z,98.16
2017-12-16T05:34:16.487Z,98.06
2017-12-16T05:35:16.215Z,97.87
2017-12-16T05:36:16.460Z,97.97
2017-12-16T05:37:16.440Z,98.16
2017-12-16T05:38:16.420Z,98.16
2017-12-16T05:39:16.408Z,98.16
2017-12-16T05:40:16.403Z,98.35
2017-12-16T05:41:16.393Z,98.16
2017-12-16T05:42:16.371Z,98.16
2017-12-16T05:43:16.353Z,98.16
2017-12-16T05:44:16.335Z,98.21
2017-12-16T05:45:16.325Z,98.11
2017-12-16T05:46:16.309Z,98.16
2017-12-16T05:47:16.310Z,98.21
2017-12-16T05:48:16.279Z,98.21
2017-12-16T05:49:16.269Z,98.21
2017-12-16T05:50:16.263Z,98.21
2017-12-16T05:51:16.242Z,98.21
2017-12-16T05:52:16.223Z,98.39
2017-12-16T05:53:16.222Z,98.58
2017-12-16T05:54:16.208Z,98.02
2017-12-16T05:55:16.191Z,98.3
2017-12-16T05:56:16.180Z,98.3
2017-12-16T05:57:16.219Z,98.21
2017-12-16T05:58:16.141Z,98.02
2017-12-16T05:59:16.139Z,97.83
2017-12-16T06:00:16.120Z,97.83
2017-12-16T06:01:16.102Z,97.73
2017-12-16T06:02:16.092Z,97.83
2017-12-16T06:03:16.079Z,97.73
2017-12-16T06:04:16.069Z,97.73
2017-12-16T06:05:15.791Z,97.45
2017-12-16T06:06:16.040Z,97.64
2017-12-16T06:07:16.021Z,97.45
2017-12-16T06:08:16.043Z,97.73
2017-12-16T06:09:15.996Z,97.54
2017-12-16T06:10:15.975Z,97.64
2017-12-16T06:11:15.710Z,97.64
2017-12-16T06:12:15.951Z,97.73
2017-12-16T06:13:15.934Z,97.45
2017-12-16T06:14:15.936Z,97.54
2017-12-16T06:15:15.921Z,97.45
2017-12-16T06:16:15.893Z,97.54
2017-12-16T06:17:15.624Z,97.54
2017-12-16T06:18:15.865Z,97.45
2017-12-16T06:19:15.863Z,97.73
2017-12-16T06:20:15.848Z,97.83
2017-12-16T06:21:15.833Z,97.73
2017-12-16T06:22:15.810Z,97.73
2017-12-16T06:23:15.807Z,97.64
2017-12-16T06:24:15.800Z,97.45
2017-12-16T06:25:15.848Z,97.45
2017-12-16T06:26:15.767Z,97.54
2017-12-16T06:27:15.746Z,97.54
2017-12-16T06:28:15.730Z,97.64
2017-12-16T06:29:15.460Z,97.45
2017-12-16T06:30:15.718Z,97.45
2017-12-16T06:31:15.694Z,97.54
2017-12-16T06:32:15.684Z,97.54
2017-12-16T06:33:15.657Z,97.45
2017-12-16T06:34:15.646Z,97.45
2017-12-16T06:35:15.640Z,97.83
2017-12-16T06:36:15.626Z,97.54
2017-12-16T06:37:15.604Z,97.45
2017-12-16T06:38:15.594Z,97.45
2017-12-16T06:39:15.638Z,97.45
2017-12-16T06:40:15.565Z,97.26
2017-12-16T06:41:15.558Z,97.26
2017-12-16T06:42:15.544Z,97.45
2017-12-16T06:43:15.528Z,97.26
2017-12-16T06:44:15.513Z,97.54
2017-12-16T06:45:15.510Z,97.26
2017-12-16T06:46:15.492Z,97.54
2017-12-16T06:47:15.473Z,97.45
2017-12-16T06:48:15.463Z,97.64
2017-12-16T06:49:15.443Z,97.45
2017-12-16T06:50:15.428Z,97.35
2017-12-16T06:51:15.413Z,97.35
2017-12-16T06:52:15.400Z,97.54
2017-12-16T06:53:15.137Z,97.64
2017-12-16T06:54:15.382Z,97.54
2017-12-16T06:55:15.362Z,97.26
2017-12-16T06:56:15.349Z,97.26
2017-12-16T06:57:15.340Z,97.07
2017-12-16T06:58:15.327Z,97.26
2017-12-16T06:59:15.313Z,97.26
2017-12-16T07:00:15.300Z,97.45
2017-12-16T07:01:15.285Z,97.07
2017-12-16T07:02:15.270Z,97.45
2017-12-16T07:03:15.257Z,97.64
2017-12-16T07:04:15.241Z,97.26
2017-12-16T07:05:15.221Z,97.54
2017-12-16T07:06:15.206Z,97.26
2017-12-16T07:07:15.202Z,96.97
2017-12-16T07:08:15.189Z,96.78
2017-12-16T07:09:15.171Z,96.78
2017-12-16T07:10:15.170Z,96.78
2017-12-16T07:11:14.890Z,97.07
2017-12-16T07:12:15.124Z,97.26
2017-12-16T07:13:15.120Z,96.97
2017-12-16T07:14:15.096Z,97.07
2017-12-16T07:15:15.084Z,97.07
2017-12-16T07:16:14.820Z,96.88
2017-12-16T07:17:15.068Z,97.07
2017-12-16T07:18:15.048Z,96.88
2017-12-16T07:19:15.027Z,96.88
2017-12-16T07:20:15.016Z,97.35
2017-12-16T07:21:15.004Z,97.26
2017-12-16T07:22:14.990Z,97.16
2017-12-16T07:23:14.974Z,97.07
2017-12-16T07:24:14.969Z,97.07
2017-12-16T07:25:14.948Z,97.45
2017-12-16T07:26:14.942Z,97.54
2017-12-16T07:27:14.927Z,97.26
2017-12-16T07:28:14.903Z,97.26
2017-12-16T07:29:14.960Z,97.16
2017-12-16T07:30:14.877Z,96.88
2017-12-16T07:31:14.863Z,97.07
2017-12-16T07:32:14.851Z,97.26
2017-12-16T07:33:14.843Z,97.16
2017-12-16T07:34:14.830Z,97.07
2017-12-16T07:35:14.810Z,96.97
2017-12-16T07:36:14.804Z,97.07
2017-12-16T07:37:14.785Z,96.88
2017-12-16T07:38:14.777Z,97.07
2017-12-16T07:39:14.768Z,96.78
2017-12-16T07:40:14.750Z,97.26
2017-12-16T07:41:14.728Z,97.35
2017-12-16T07:42:14.728Z,97.26
2017-12-16T07:43:14.711Z,96.97
2017-12-16T07:44:14.687Z,97.07
2017-12-16T07:45:14.678Z,96.88
2017-12-16T07:46:14.661Z,97.45
2017-12-16T07:47:14.652Z,97.16
2017-12-16T07:48:14.636Z,97.26
2017-12-16T07:49:14.621Z,97.16
2017-12-16T07:50:14.609Z,96.97
2017-12-16T07:51:14.597Z,97.07
2017-12-16T07:52:14.586Z,96.88
2017-12-16T07:53:14.564Z,96.88
2017-12-16T07:54:14.565Z,96.78
2017-12-16T07:55:14.541Z,96.88
2017-12-16T07:56:14.535Z,96.69
2017-12-16T07:57:14.517Z,96.88
2017-12-16T07:58:14.504Z,96.78
2017-12-16T07:59:14.489Z,97.26
2017-12-16T08:00:14.501Z,97.26
2017-12-16T08:01:14.462Z,97.26
2017-12-16T08:02:14.447Z,97.35
2017-12-16T08:03:14.439Z,97.26
2017-12-16T08:04:14.419Z,97.26
2017-12-16T08:05:14.152Z,96.92
2017-12-16T08:06:14.390Z,97.12
2017-12-16T08:07:14.381Z,97.02
2017-12-16T08:08:14.363Z,96.92
2017-12-16T08:09:14.352Z,96.92
2017-12-16T08:10:14.345Z,96.92
2017-12-16T08:11:14.331Z,96.73
2017-12-16T08:12:14.318Z,97.02
2017-12-16T08:13:14.318Z,97.12
2017-12-16T08:14:14.286Z,96.92
2017-12-16T08:15:14.272Z,96.83
2017-12-16T08:16:14.255Z,96.83
2017-12-16T08:17:14.247Z,96.92
2017-12-16T08:18:14.238Z,96.36
2017-12-16T08:19:14.225Z,96.36
2017-12-16T08:20:13.952Z,96.45
2017-12-16T08:21:13.932Z,96.64
2017-12-16T08:22:13.920Z,96.45
2017-12-16T08:23:14.166Z,96.55
2017-12-16T08:24:14.164Z,96.55
2017-12-16T08:25:14.148Z,96.55
2017-12-16T08:26:14.132Z,96.64
2017-12-16T08:27:14.115Z,96.17
2017-12-16T08:28:14.101Z,96.73
2017-12-16T08:29:13.829Z,96.26
2017-12-16T08:30:13.821Z,96.55
2017-12-16T08:31:14.067Z,96.55
2017-12-16T08:32:14.055Z,96.73
2017-12-16T08:33:14.041Z,96.83
2017-12-16T08:34:14.027Z,96.92
2017-12-16T08:35:14.004Z,96.64
2017-12-16T08:36:13.738Z,96.83
2017-12-16T08:37:13.982Z,97.12
2017-12-16T08:38:13.995Z,97.4
2017-12-16T08:39:13.963Z,97.02
2017-12-16T08:40:13.948Z,97.02
2017-12-16T08:41:13.943Z,96.92
2017-12-16T08:42:13.928Z,96.92
2017-12-16T08:43:13.905Z,96.83
2017-12-16T08:44:13.897Z,96.64
2017-12-16T08:45:13.887Z,96.73
2017-12-16T08:46:13.860Z,96.55
2017-12-16T08:47:13.857Z,96.55
2017-12-16T08:48:13.844Z,96.08
2017-12-16T08:49:13.834Z,96.45
2017-12-16T08:50:13.818Z,96.36
2017-12-16T08:51:13.808Z,95.79
2017-12-16T08:52:13.792Z,96.64
2017-12-16T08:53:13.780Z,96.55
2017-12-16T08:54:13.758Z,96.55
2017-12-16T08:55:13.750Z,96.45
2017-12-16T08:56:13.740Z,96.45
2017-12-16T08:57:13.724Z,96.45
2017-12-16T08:58:13.718Z,96.08
2017-12-16T08:59:13.697Z,95.88
2017-12-16T09:00:13.680Z,95.69
2017-12-16T09:01:13.679Z,96.03
2017-12-16T09:02:13.675Z,95.65
2017-12-16T09:03:13.662Z,95.65
2017-12-16T09:04:13.631Z,95.65
2017-12-16T09:05:13.626Z,95.65
2017-12-16T09:06:13.347Z,96.12
2017-12-16T09:07:13.601Z,95.65
2017-12-16T09:08:13.588Z,95.93
2017-12-16T09:09:13.566Z,96.03
2017-12-16T09:10:13.560Z,95.65
2017-12-16T09:11:13.542Z,95.84
2017-12-16T09:12:13.275Z,95.36
2017-12-16T09:13:13.525Z,95.55
2017-12-16T09:14:13.250Z,95.55
2017-12-16T09:15:13.237Z,95.55
2017-12-16T09:16:13.497Z,95.84
2017-12-16T09:17:13.467Z,95.36
2017-12-16T09:18:13.464Z,95.36
2017-12-16T09:19:13.450Z,95.65
2017-12-16T09:20:13.435Z,95.46
2017-12-16T09:21:13.429Z,96.03
2017-12-16T09:22:13.154Z,95.93
2017-12-16T09:23:13.142Z,95.74
2017-12-16T09:24:13.395Z,96.31
2017-12-16T09:25:13.384Z,96.31
2017-12-16T09:26:13.370Z,95.65
2017-12-16T09:27:13.352Z,95.65
2017-12-16T09:28:13.345Z,95.65
2017-12-16T09:29:13.333Z,94.79
2017-12-16T09:30:13.309Z,94.89
2017-12-16T09:31:13.300Z,94.7
2017-12-16T09:32:13.297Z,94.79
2017-12-16T09:33:13.287Z,94.7
2017-12-16T09:34:13.269Z,95.07
2017-12-16T09:35:13.253Z,94.98
2017-12-16T09:36:13.240Z,95.07
2017-12-16T09:37:13.243Z,95.65
2017-12-16T09:38:13.220Z,95.46
2017-12-16T09:39:13.224Z,95.27
2017-12-16T09:40:13.218Z,94.6
2017-12-16T09:41:13.180Z,95.84
2017-12-16T09:42:13.169Z,94.89
2017-12-16T09:43:13.157Z,94.79
2017-12-16T09:44:13.158Z,95.07
2017-12-16T09:45:13.197Z,95.55
2017-12-16T09:46:13.118Z,95.55
2017-12-16T09:47:13.102Z,95.55
2017-12-16T09:48:13.102Z,95.65
2017-12-16T09:49:13.077Z,95.65
2017-12-16T09:50:13.072Z,95.46
2017-12-16T09:51:13.060Z,95.74
2017-12-16T09:52:13.040Z,96.22
2017-12-16T09:53:13.036Z,96.12
2017-12-16T09:54:13.018Z,95.93
2017-12-16T09:55:13.005Z,96.22
2017-12-16T09:56:12.993Z,96.12
2017-12-16T09:57:12.983Z,96.78
2017-12-16T09:58:12.974Z,96.22
2017-12-16T09:59:12.960Z,96.22
2017-12-16T10:00:12.951Z,96.12
2017-12-16T10:01:13.004Z,96.12
2017-12-16T10:02:12.929Z,96.22
2017-12-16T10:03:12.908Z,96.03
2017-12-16T10:04:12.890Z,95.93
2017-12-16T10:05:12.885Z,95.46
2017-12-16T10:06:12.879Z,95.74
2017-12-16T10:07:12.855Z,94.7
2017-12-16T10:08:12.852Z,95.51
2017-12-16T10:09:12.830Z,95.7
2017-12-16T10:10:12.823Z,94.74
2017-12-16T10:11:12.814Z,95.6
2017-12-16T10:12:12.798Z,94.93
2017-12-16T10:13:12.524Z,94.93
2017-12-16T10:14:12.780Z,94.46
2017-12-16T10:15:12.767Z,94.65
2017-12-16T10:16:12.492Z,94.6
2017-12-16T10:17:12.733Z,94.23
2017-12-16T10:18:12.728Z,94.42
2017-12-16T10:19:12.455Z,93.75
2017-12-16T10:20:12.700Z,93.56
2017-12-16T10:21:12.700Z,93.75
2017-12-16T10:22:12.682Z,93.75
2017-12-16T10:23:12.663Z,93.56
2017-12-16T10:24:12.652Z,93.65
2017-12-16T10:25:12.656Z,93.65
2017-12-16T10:26:12.632Z,93.65
2017-12-16T10:27:12.616Z,93.27
2017-12-16T10:28:12.618Z,93.89
2017-12-16T10:29:12.598Z,93.13
2017-12-16T10:30:12.582Z,92.66
2017-12-16T10:31:12.584Z,93.13
2017-12-16T10:32:12.565Z,93.41
2017-12-16T10:33:12.554Z,93.79
2017-12-16T10:34:12.541Z,93.6
2017-12-16T10:35:12.274Z,93.04
2017-12-16T10:36:12.260Z,93.41
2017-12-16T10:37:12.507Z,93.41
2017-12-16T10:38:12.245Z,93.65
2017-12-16T10:39:12.490Z,93.27
2017-12-16T10:40:12.221Z,93.37
2017-12-16T10:41:12.472Z,93.08
2017-12-16T10:42:12.200Z,92.8
2017-12-16T10:43:12.444Z,92.51
2017-12-16T10:44:12.443Z,93.08
2017-12-16T10:45:12.430Z,92.89
2017-12-16T10:46:12.428Z,92.51
2017-12-16T10:47:12.434Z,92.61
2017-12-16T10:48:12.397Z,92.61
2017-12-16T10:49:12.389Z,92.8
2017-12-16T10:50:12.118Z,92.89
2017-12-16T10:51:12.102Z,92.66
2017-12-16T10:52:12.351Z,92.99
2017-12-16T10:53:12.337Z,93.18
2017-12-16T10:54:12.332Z,92.89
2017-12-16T10:55:12.330Z,92.7
2017-12-16T10:56:12.317Z,92.85
2017-12-16T10:57:12.348Z,92.7
2017-12-16T10:58:12.291Z,92.94
2017-12-16T10:59:12.278Z,92.56
2017-12-16T11:00:12.279Z,93.13
2017-12-16T11:01:12.260Z,93.41
2017-12-16T11:02:12.248Z,93.41
2017-12-16T11:03:12.231Z,93.23
2017-12-16T11:04:12.233Z,92.46
2017-12-16T11:05:12.220Z,92.37
2017-12-16T11:06:11.947Z,92.94
2017-12-16T11:07:12.191Z,93.51
2017-12-16T11:08:12.179Z,94.08
2017-12-16T11:09:12.172Z,93.89
2017-12-16T11:10:12.163Z,93.7
2017-12-16T11:11:12.147Z,93.84
2017-12-16T11:12:12.144Z,93.75
2017-12-16T11:13:12.123Z,94.7
2017-12-16T11:14:12.108Z,94.6
2017-12-16T11:15:12.100Z,95.08
2017-12-16T11:16:12.096Z,95.55
2017-12-16T11:17:12.076Z,96.03
2017-12-16T11:18:12.071Z,95.55
2017-12-16T11:19:12.065Z,95.46
2017-12-16T11:20:12.052Z,95.75
2017-12-16T11:21:12.033Z,96.03
2017-12-16T11:22:12.020Z,96.03
2017-12-16T11:23:12.009Z,96.12
2017-12-16T11:24:11.997Z,96.22
2017-12-16T11:25:11.984Z,95.84
2017-12-16T11:26:11.983Z,96.31
2017-12-16T11:27:11.960Z,96.12
2017-12-16T11:28:11.962Z,96.03
2017-12-16T11:29:11.940Z,96.12
2017-12-16T11:30:11.933Z,96.12
2017-12-16T11:31:11.926Z,96.79
2017-12-16T11:32:11.922Z,96.83
2017-12-16T11:33:11.898Z,96.83
2017-12-16T11:34:11.884Z,96.08
2017-12-16T11:35:11.886Z,96.64
2017-12-16T11:36:11.868Z,97.12
2017-12-16T11:37:11.927Z,97.22
2017-12-16T11:38:11.832Z,97.31
2017-12-16T11:39:11.828Z,97.22
2017-12-16T11:40:11.816Z,97.6
2017-12-16T11:41:11.804Z,97.69
2017-12-16T11:42:11.792Z,97.5
2017-12-16T11:43:11.770Z,97.41
2017-12-16T11:44:11.798Z,97.5
2017-12-16T11:45:11.778Z,97.41
2017-12-16T11:46:11.753Z,98.07
2017-12-16T11:47:11.735Z,97.5
2017-12-16T11:48:11.728Z,97.41
2017-12-16T11:49:11.705Z,97.6
2017-12-16T11:50:11.705Z,97.41
2017-12-16T11:51:11.678Z,97.55
2017-12-16T11:52:11.677Z,97.45
2017-12-16T11:53:11.664Z,98.11
2017-12-16T11:54:11.647Z,97.74
2017-12-16T11:55:11.623Z,97.64
2017-12-16T11:56:11.626Z,97.92
2017-12-16T11:57:11.611Z,97.55
2017-12-16T11:58:11.594Z,97.26
2017-12-16T11:59:11.585Z,97.45
2017-12-16T12:00:11.571Z,97.55
2017-12-16T12:01:11.559Z,97.36
2017-12-16T12:02:11.296Z,97.36
2017-12-16T12:03:11.533Z,97.17
2017-12-16T12:04:11.573Z,97.92
2017-12-16T12:05:11.512Z,97.36
2017-12-16T12:06:11.510Z,97.74
2017-12-16T12:07:11.533Z,97.36
2017-12-16T12:08:11.476Z,97.64
2017-12-16T12:09:11.456Z,97.36
2017-12-16T12:10:11.455Z,97.55
2017-12-16T12:11:11.428Z,97.64
2017-12-16T12:12:11.437Z,96.97
2017-12-16T12:13:11.411Z,97.64
2017-12-16T12:14:11.409Z,97.55
2017-12-16T12:15:11.374Z,97.55
2017-12-16T12:16:11.376Z,97.45
2017-12-16T12:17:11.374Z,97.64
2017-12-16T12:18:11.343Z,97.26
2017-12-16T12:19:11.327Z,96.88
2017-12-16T12:20:11.321Z,96.88
2017-12-16T12:21:11.311Z,97.26
2017-12-16T12:22:11.293Z,97.17
2017-12-16T12:23:11.286Z,97.36
2017-12-16T12:24:11.008Z,96.97
2017-12-16T12:25:11.256Z,97.17
2017-12-16T12:26:11.260Z,96.78
2017-12-16T12:27:11.224Z,96.03
2017-12-16T12:28:10.963Z,96.22
2017-12-16T12:29:11.200Z,96.69
2017-12-16T12:30:11.213Z,96.59
2017-12-16T12:31:11.185Z,96.69
2017-12-16T12:32:11.166Z,96.69
2017-12-16T12:33:11.153Z,96.78
2017-12-16T12:34:11.165Z,97.45
2017-12-16T12:35:11.150Z,97.07
2017-12-16T12:36:10.858Z,97.07
2017-12-16T12:37:11.113Z,96.78
2017-12-16T12:38:11.096Z,96.41
2017-12-16T12:39:11.511Z,96.69
2017-12-16T12:40:11.065Z,96.31
2017-12-16T12:41:11.061Z,96.5
2017-12-16T12:42:11.046Z,96.45
2017-12-16T12:43:11.032Z,96.93
2017-12-16T12:44:11.030Z,96.93
2017-12-16T12:45:10.751Z,96.83
2017-12-16T12:46:10.996Z,96.45
2017-12-16T12:47:11.043Z,97.02
2017-12-16T12:48:10.973Z,96.93
2017-12-16T12:49:10.954Z,96.74
2017-12-16T12:50:10.947Z,96.45
2017-12-16T12:51:10.935Z,96.93
2017-12-16T12:52:10.915Z,96.83
2017-12-16T12:53:10.902Z,96.36
2017-12-16T12:54:10.900Z,96.26